Time;durP1;ratioP1;P1;durP2;ratioP2;P2;SDS_P1;SDS_P2;PMS_P1;PMS_P2;Temp;Humidity;BMP_temperature;BMP_pressure;BME280_temperature;BME280_humidity;BME280_pressure;Samples;Min_cycle;Max_cycle;Signal;HPM_P1;HPM_P2
2022/10/26 00:01:28;;;;;;;10.65;5.82;;;;;;;13.98;61.50;101357.59;4964355;28;123546;-67
2022/10/26 00:03:56;;;;;;;8.15;5.72;;;;;;;13.98;61.61;101357.59;4963818;28;115723;-70
2022/10/26 00:06:27;;;;;;;11.43;5.50;;;;;;;13.97;61.62;101351.38;4982200;28;114757;-67
2022/10/26 00:08:56;;;;;;;13.20;6.05;;;;;;;14.00;61.83;101353.06;4974000;28;124335;-68
2022/10/26 00:11:23;;;;;;;14.00;6.03;;;;;;;14.02;61.79;101343.19;4980982;28;124405;-68
2022/10/26 00:13:50;;;;;;;9.05;6.20;;;;;;;14.05;61.87;101351.00;4984072;28;114702;-68
2022/10/26 00:16:21;;;;;;;11.43;6.05;;;;;;;14.07;61.96;101345.59;4985221;28;113911;-69
2022/10/26 00:18:49;;;;;;;11.07;6.13;;;;;;;14.10;61.92;101346.28;4968661;28;124703;-68
2022/10/26 00:21:17;;;;;;;10.88;6.75;;;;;;;14.13;61.96;101340.81;4978754;28;124272;-68
2022/10/26 00:23:44;;;;;;;9.60;6.35;;;;;;;14.16;62.04;101343.31;4985045;28;114216;-68
2022/10/26 00:26:11;;;;;;;12.93;6.20;;;;;;;14.18;61.81;101341.47;4966462;28;112895;-68
2022/10/26 00:28:39;;;;;;;11.48;6.13;;;;;;;14.21;62.17;101335.94;4962929;28;124421;-68
2022/10/26 00:31:12;;;;;;;8.18;6.22;;;;;;;14.23;62.22;101340.34;4956101;28;123357;-68
2022/10/26 00:33:40;;;;;;;12.40;6.10;;;;;;;14.25;62.13;101343.78;4984320;28;114489;-68
2022/10/26 00:36:08;;;;;;;10.80;6.28;;;;;;;14.27;62.11;101332.09;4977998;28;114889;-69
2022/10/26 00:38:36;;;;;;;8.90;6.43;;;;;;;14.29;62.23;101337.34;4971570;28;123222;-68
2022/10/26 00:41:04;;;;;;;12.27;6.20;;;;;;;14.32;62.15;101345.19;4978467;28;124405;-68
2022/10/26 00:43:33;;;;;;;12.73;6.97;;;;;;;14.35;62.23;101334.34;4983442;28;114123;-68
2022/10/26 00:46:03;;;;;;;10.05;6.32;;;;;;;14.37;62.14;101337.78;4962848;28;114029;-68
2022/10/26 00:48:37;;;;;;;8.57;6.50;;;;;;;14.38;62.33;101329.72;4979901;28;125004;-68
2022/10/26 00:51:31;;;;;;;10.90;6.07;;;;;;;14.39;62.17;101323.47;4985054;28;124542;-68
2022/10/26 00:54:07;;;;;;;12.05;6.60;;;;;;;14.40;62.30;101324.31;4976454;28;115104;-68
2022/10/26 00:56:34;;;;;;;8.73;6.35;;;;;;;14.39;62.20;101319.91;4977062;28;115622;-67
2022/10/26 00:59:05;;;;;;;10.52;6.90;;;;;;;14.39;62.37;101322.59;4963573;28;123819;-68
2022/10/26 01:01:36;;;;;;;11.48;7.00;;;;;;;14.39;62.45;101319.91;4979967;28;123815;-68
2022/10/26 01:04:03;;;;;;;13.88;7.13;;;;;;;14.40;62.49;101313.66;4980693;28;113483;-68
2022/10/26 01:06:33;;;;;;;14.68;6.45;;;;;;;14.41;62.47;101307.41;4981622;28;114056;-68
2022/10/26 01:09:00;;;;;;;12.52;6.85;;;;;;;14.43;62.61;101309.97;4981141;28;124495;-68
2022/10/26 01:11:27;;;;;;;12.82;6.50;;;;;;;14.43;62.59;101294.84;4975532;28;124176;-68
2022/10/26 01:13:56;;;;;;;13.05;6.50;;;;;;;14.43;62.80;101294.84;4976138;28;114543;-68
2022/10/26 01:16:41;;;;;;;11.05;6.30;;;;;;;14.44;62.87;101296.56;4983298;28;114112;-68
2022/10/26 01:19:14;;;;;;;;;;;;;;;14.43;62.37;101299.28;4980322;28;124209;-68
2022/10/26 01:22:00;;;;;;;12.45;6.47;;;;;;;14.46;62.78;101305.31;4982750;28;124276;-68
2022/10/26 01:25:05;;;;;;;12.32;6.32;;;;;;;14.48;62.72;101303.44;4972896;28;114919;-68
2022/10/26 01:27:39;;;;;;;9.27;5.65;;;;;;;14.50;62.95;101301.53;4985369;28;114307;-68
2022/10/26 01:30:12;;;;;;;11.27;5.77;;;;;;;14.53;62.76;101311.19;4972999;28;124113;-68
2022/10/26 01:33:05;;;;;;;13.52;6.45;;;;;;;14.55;62.94;101310.16;4986049;28;124194;-68
2022/10/26 01:35:57;;;;;;;12.13;5.82;;;;;;;14.59;63.01;101306.41;4934737;28;96926;-68
2022/10/26 01:38:49;;;;;;;10.98;6.20;;;;;;;14.63;62.86;101303.59;4982291;28;113874;-68
2022/10/26 01:41:27;;;;;;;11.57;5.95;;;;;;;14.66;62.83;101296.28;4976401;28;124277;-67
2022/10/26 01:44:01;;;;;;;10.82;5.90;;;;;;;14.70;62.95;101294.31;4978773;28;123720;-68
2022/10/26 01:46:34;;;;;;;14.83;6.00;;;;;;;14.72;62.69;101284.44;4978577;28;115166;-68
2022/10/26 01:49:06;;;;;;;10.73;5.68;;;;;;;14.76;62.51;101288.63;4965290;28;116786;-68
2022/10/26 01:51:35;;;;;;;11.52;6.10;;;;;;;14.77;62.66;101277.03;4980939;28;124308;-68
2022/10/26 01:54:02;;;;;;;9.52;5.45;;;;;;;14.79;62.74;101269.81;4970460;28;124002;-69
2022/10/26 01:56:33;;;;;;;10.18;5.70;;;;;;;14.80;62.71;101271.50;4982218;28;114926;-68
2022/10/26 01:59:29;;;;;;;10.68;6.18;;;;;;;14.81;62.77;101267.91;4985441;28;114272;-68
2022/10/26 02:02:30;;;;;;;11.45;5.93;;;;;;;14.80;62.66;101260.84;4985194;28;123459;-68
2022/10/26 02:05:03;;;;;;;9.60;5.85;;;;;;;14.79;62.71;101260.00;4962960;28;123644;-69
2022/10/26 02:07:54;;;;;;;9.43;5.38;;;;;;;14.80;62.62;101266.19;4978315;28;114118;-69
2022/10/26 02:10:46;;;;;;;11.07;5.97;;;;;;;14.80;62.62;101260.84;4982109;28;113024;-68
2022/10/26 02:13:26;;;;;;;11.48;5.45;;;;;;;14.80;62.79;101255.50;4982235;28;123789;-68
2022/10/26 02:16:05;;;;;;;9.95;5.53;;;;;;;14.81;62.79;101251.06;4977054;28;123658;-68
2022/10/26 02:18:49;;;;;;;9.88;5.70;;;;;;;14.81;62.86;101246.59;4957904;28;113793;-69
2022/10/26 02:21:21;;;;;;;10.02;5.45;;;;;;;14.83;62.68;101244.69;4982012;28;113867;-69
2022/10/26 02:23:51;;;;;;;19.65;6.40;;;;;;;14.83;62.89;101238.50;4979544;28;123856;-69
2022/10/26 02:26:23;;;;;;;10.55;5.93;;;;;;;14.84;62.72;101241.06;4979110;28;125693;-68
2022/10/26 02:28:54;;;;;;;10.75;5.72;;;;;;;14.83;62.91;101255.34;4977056;28;115032;-69
2022/10/26 02:31:24;;;;;;;11.00;6.05;;;;;;;14.84;62.90;101251.72;4961952;28;113092;-68
2022/10/26 02:33:54;;;;;;;10.13;5.80;;;;;;;14.87;62.98;101240.91;4977396;28;123984;-69
2022/10/26 02:36:31;;;;;;;9.27;5.90;;;;;;;14.88;62.93;101234.63;4973718;28;123638;-69
2022/10/26 02:39:00;;;;;;;10.70;5.90;;;;;;;14.89;62.93;101233.66;4978305;28;115170;-69
2022/10/26 02:41:29;;;;;;;11.13;5.55;;;;;;;14.89;62.92;101233.66;4977324;28;114882;-68
2022/10/26 02:44:06;;;;;;;8.50;5.43;;;;;;;14.89;62.73;101233.66;4981395;28;123800;-68
2022/10/26 02:46:33;;;;;;;7.65;5.45;;;;;;;14.90;62.95;101235.41;4980639;28;124264;-69
2022/10/26 02:49:00;;;;;;;10.50;5.85;;;;;;;14.92;62.87;101229.97;4980901;28;115355;-68
2022/10/26 02:51:42;;;;;;;10.50;5.95;;;;;;;14.92;62.87;101225.50;4983030;28;113913;-68
2022/10/26 02:54:17;;;;;;;12.70;6.13;;;;;;;14.94;62.95;101228.09;4986202;28;123790;-69
2022/10/26 02:57:04;;;;;;;10.30;6.10;;;;;;;14.94;62.82;101226.28;4976143;28;123589;-68
2022/10/26 02:59:35;;;;;;;10.40;5.70;;;;;;;14.96;62.80;101229.72;4980224;28;113319;-68
2022/10/26 03:02:03;;;;;;;13.77;5.88;;;;;;;14.96;63.19;101224.38;4962486;28;113066;-68
2022/10/26 03:04:32;;;;;;;10.60;5.95;;;;;;;14.96;62.86;101221.69;4953901;28;124116;-68
2022/10/26 03:07:00;;;;;;;13.75;6.18;;;;;;;14.97;62.46;101215.44;4972370;28;123126;-69
2022/10/26 03:09:27;;;;;;;13.30;6.00;;;;;;;14.97;62.73;101222.56;4969102;28;113186;-68
2022/10/26 03:11:54;;;;;;;12.50;5.85;;;;;;;14.95;62.70;101217.31;4981477;28;113979;-69
2022/10/26 03:14:21;;;;;;;13.30;6.72;;;;;;;14.94;62.82;101220.94;4987536;28;124055;-68
2022/10/26 03:16:48;;;;;;;12.05;6.22;;;;;;;14.94;62.72;101218.28;4966960;28;123675;-68
2022/10/26 03:19:20;;;;;;;12.30;5.93;;;;;;;14.94;62.66;101212.94;4981606;28;115626;-68
2022/10/26 03:21:47;;;;;;;13.70;6.40;;;;;;;14.93;62.76;101210.34;4989223;28;113663;-68
2022/10/26 03:24:14;;;;;;;11.20;6.15;;;;;;;14.92;62.83;101209.50;4983104;28;123262;-68
2022/10/26 03:26:41;;;;;;;10.70;6.40;;;;;;;14.93;62.87;101213.88;4979436;28;124034;-68
2022/10/26 03:29:08;;;;;;;12.13;6.72;;;;;;;14.92;62.85;101216.66;4976730;28;115243;-68
2022/10/26 03:31:35;;;;;;;11.23;6.03;;;;;;;14.92;62.83;101212.16;4971670;28;114895;-68
2022/10/26 03:34:02;;;;;;;10.75;6.20;;;;;;;14.93;62.87;101213.00;4987870;28;123898;-69
2022/10/26 03:36:30;;;;;;;11.07;6.43;;;;;;;14.93;62.85;101215.69;4982161;28;123145;-69
2022/10/26 03:38:56;;;;;;;13.73;5.95;;;;;;;14.94;62.85;101215.59;4983715;28;113252;-69
2022/10/26 03:41:24;;;;;;;11.20;5.88;;;;;;;14.93;62.69;101219.19;4965257;28;112185;-69
2022/10/26 03:43:51;;;;;;;10.18;6.10;;;;;;;14.93;62.67;101213.88;4985399;28;124152;-69
2022/10/26 03:46:18;;;;;;;10.30;6.15;;;;;;;14.93;62.81;101213.88;4980731;28;123718;-68
2022/10/26 03:48:45;;;;;;;11.80;5.95;;;;;;;14.93;62.76;101216.53;4987482;28;113399;-68
2022/10/26 03:51:12;;;;;;;12.25;6.45;;;;;;;14.93;63.02;101208.53;4986151;28;114530;-68
2022/10/26 03:53:39;;;;;;;10.73;6.28;;;;;;;14.93;62.81;101211.19;4982459;28;123301;-69
2022/10/26 03:56:06;;;;;;;10.82;5.82;;;;;;;14.94;62.95;101204.09;4986835;28;123741;-68
2022/10/26 03:58:33;;;;;;;11.63;6.43;;;;;;;14.94;62.79;101210.25;4984188;28;114237;-68
2022/10/26 04:01:00;;;;;;;14.38;6.15;;;;;;;14.96;62.90;101203.03;4973189;28;113777;-68
2022/10/26 04:03:27;;;;;;;9.10;5.60;;;;;;;14.97;62.99;101202.09;4981842;28;124849;-69
2022/10/26 04:05:54;;;;;;;14.18;6.38;;;;;;;14.97;63.02;101201.22;4988598;28;123852;-69
2022/10/26 04:08:21;;;;;;;11.07;6.15;;;;;;;15.01;63.15;101199.22;4981436;28;114501;-69
2022/10/26 04:10:48;;;;;;;11.15;6.15;;;;;;;15.02;63.16;101207.16;4962485;28;113590;-68
2022/10/26 04:13:15;;;;;;;12.90;6.18;;;;;;;15.05;63.20;101206.09;4980925;28;123970;-69
2022/10/26 04:15:42;;;;;;;12.63;6.13;;;;;;;15.08;63.17;101211.28;4983461;28;124405;-68
2022/10/26 04:18:11;;;;;;;12.45;6.18;;;;;;;15.10;63.17;101204.88;4962725;28;114349;-68
2022/10/26 04:20:41;;;;;;;10.10;5.85;;;;;;;15.11;63.20;101205.78;4981248;28;114906;-68
2022/10/26 04:23:13;;;;;;;12.77;5.68;;;;;;;15.13;63.35;101203.88;4983352;28;123980;-69
2022/10/26 04:25:42;;;;;;;7.15;5.38;;;;;;;15.15;63.14;101196.63;4979973;28;124469;-68
2022/10/26 04:28:11;;;;;;;7.00;5.60;;;;;;;15.18;63.23;101212.44;4984838;28;114424;-69
2022/10/26 04:30:38;;;;;;;12.70;5.50;;;;;;;15.18;63.18;101202.66;4986779;28;114252;-69
2022/10/26 04:33:06;;;;;;;11.18;5.80;;;;;;;15.22;63.11;101213.13;4963619;28;125266;-68
2022/10/26 04:35:33;;;;;;;8.65;5.20;;;;;;;15.22;63.08;101203.34;4980858;28;123554;-69
2022/10/26 04:38:03;;;;;;;9.95;5.38;;;;;;;15.23;63.02;101199.69;4974337;28;113903;-69
2022/10/26 04:40:31;;;;;;;11.10;4.97;;;;;;;15.24;63.01;101206.78;4949859;28;114087;-69
2022/10/26 04:42:58;;;;;;;9.95;4.90;;;;;;;15.24;63.09;101205.88;4966476;28;124926;-69
2022/10/26 04:45:29;;;;;;;9.45;4.93;;;;;;;15.24;62.99;101206.78;4982138;28;124852;-69
2022/10/26 04:48:06;;;;;;;10.82;5.07;;;;;;;15.23;63.13;101197.03;4980068;28;114127;-68
2022/10/26 04:50:33;;;;;;;10.45;4.82;;;;;;;15.23;63.03;101189.03;4983950;28;113416;-69
2022/10/26 04:53:03;;;;;;;8.02;4.80;;;;;;;15.24;62.95;101190.75;4984163;28;124023;-69
2022/10/26 04:55:31;;;;;;;10.45;4.95;;;;;;;15.24;62.98;101190.75;4969391;28;123047;-69
2022/10/26 04:57:58;;;;;;;10.52;5.00;;;;;;;15.23;63.20;101188.19;4980279;28;114554;-68
2022/10/26 05:00:29;;;;;;;9.10;5.13;;;;;;;15.24;62.95;101190.75;4973190;28;115943;-69
2022/10/26 05:03:04;;;;;;;10.20;5.00;;;;;;;15.22;62.99;101190.00;4983665;28;124062;-69
2022/10/26 05:05:34;;;;;;;7.55;4.57;;;;;;;15.22;63.08;101186.44;4965147;28;123756;-69
2022/10/26 05:08:01;;;;;;;8.98;4.80;;;;;;;15.22;63.10;101187.31;4965130;28;114175;-69
2022/10/26 05:10:28;;;;;;;12.10;4.90;;;;;;;15.24;63.31;101184.53;4978398;28;116231;-70
2022/10/26 05:12:58;;;;;;;11.63;5.07;;;;;;;15.24;63.04;101185.41;4982341;28;124889;-67
2022/10/26 05:15:26;;;;;;;10.85;5.20;;;;;;;15.25;63.24;101186.28;4968266;28;124490;-69
2022/10/26 05:18:02;;;;;;;7.88;4.78;;;;;;;15.27;63.25;101190.56;4981764;28;114036;-68
2022/10/26 05:20:31;;;;;;;8.60;4.95;;;;;;;15.28;63.19;101186.94;4972356;28;113137;-68
2022/10/26 05:23:01;;;;;;;9.68;5.10;;;;;;;15.31;63.24;101185.91;4958034;28;123002;-68
2022/10/26 05:25:30;;;;;;;8.88;4.30;;;;;;;15.32;63.28;101188.47;4980246;28;123834;-68
2022/10/26 05:27:59;;;;;;;10.23;4.53;;;;;;;15.35;63.44;101193.66;4976973;28;114605;-68
2022/10/26 05:30:27;;;;;;;7.75;4.25;;;;;;;15.38;63.27;101196.13;4961826;28;113739;-67
2022/10/26 05:32:59;;;;;;;9.98;4.32;;;;;;;15.40;63.27;101190.69;4979204;28;122738;-68
2022/10/26 05:35:26;;;;;;;9.00;3.72;;;;;;;15.45;63.30;101195.78;4968557;28;124398;-68
2022/10/26 05:37:53;;;;;;;9.65;4.10;;;;;;;15.47;63.34;101192.06;4981192;28;114213;-68
2022/10/26 05:40:21;;;;;;;7.03;3.88;;;;;;;15.50;63.33;101199.00;4962462;28;114631;-68
2022/10/26 05:42:49;;;;;;;7.50;3.65;;;;;;;15.52;63.53;101200.66;4961773;28;124570;-69
2022/10/26 05:45:17;;;;;;;8.10;4.05;;;;;;;15.54;63.64;101197.91;4976903;28;124522;-68
2022/10/26 05:47:44;;;;;;;7.78;4.10;;;;;;;15.57;63.55;101192.34;4980057;28;114111;-68
2022/10/26 05:50:12;;;;;;;7.80;3.58;;;;;;;15.60;63.45;101202.84;4983983;28;114472;-68
2022/10/26 05:52:40;;;;;;;7.95;3.83;;;;;;;15.63;63.58;101197.31;4980204;28;123874;-68
2022/10/26 05:55:08;;;;;;;7.60;4.00;;;;;;;15.67;63.50;101204.22;4946282;28;122803;-70
2022/10/26 05:57:36;;;;;;;13.35;3.65;;;;;;;15.71;63.53;101203.06;4981408;28;115017;-70
2022/10/26 06:00:24;;;;;;;6.68;3.50;;;;;;;15.74;63.59;101210.03;4975348;28;115210;-69
2022/10/26 06:03:11;;;;;;;8.82;3.88;;;;;;;15.78;63.51;101206.22;4974527;28;124398;-69
2022/10/26 06:05:51;;;;;;;6.75;3.58;;;;;;;15.82;63.67;101206.91;4973489;28;122835;-69
2022/10/26 06:08:20;;;;;;;7.10;3.38;;;;;;;15.86;63.26;101208.44;4965283;28;113547;-72
2022/10/26 06:10:48;;;;;;;5.65;3.40;;;;;;;15.89;63.38;101208.25;4971609;28;113877;-68
2022/10/26 06:13:16;;;;;;;6.85;3.47;;;;;;;15.91;63.14;101214.34;4985476;28;126577;-69
2022/10/26 06:15:58;;;;;;;8.30;3.92;;;;;;;15.94;63.20;101222.19;4976950;28;123408;-69
2022/10/26 06:18:41;;;;;;;7.32;3.47;;;;;;;15.97;63.14;101221.97;4987043;28;114028;-69
2022/10/26 06:21:46;;;;;;;8.93;3.80;;;;;;;15.99;63.03;101230.75;4981949;28;113591;-68
2022/10/26 06:24:34;;;;;;;6.28;3.58;;;;;;;16.00;63.10;101227.16;4979671;28;123972;-69
2022/10/26 06:27:25;;;;;;;7.97;2.97;;;;;;;16.02;62.95;101235.94;4980428;28;124204;-69
2022/10/26 06:30:02;;;;;;;9.15;3.97;;;;;;;16.05;63.04;101230.41;4969158;28;114011;-69
2022/10/26 06:32:29;;;;;;;10.20;3.63;;;;;;;16.08;62.92;101230.19;4976084;28;114426;-69
2022/10/26 06:35:25;;;;;;;6.05;3.50;;;;;;;16.10;63.06;101236.31;4952008;28;123877;-69
2022/10/26 06:37:55;;;;;;;7.65;3.47;;;;;;;16.13;62.90;101237.94;4959132;28;123774;-69
2022/10/26 06:40:24;;;;;;;5.30;3.55;;;;;;;16.14;62.84;101237.84;4975199;28;112270;-69
2022/10/26 06:42:51;;;;;;;8.18;3.30;;;;;;;16.17;62.86;101234.13;4984256;28;114553;-69
2022/10/26 06:45:19;;;;;;;7.22;3.70;;;;;;;16.20;62.83;101233.06;4989696;28;124933;-69
2022/10/26 06:47:59;;;;;;;7.32;3.60;;;;;;;16.19;62.84;101236.69;4969241;28;123241;-66
2022/10/26 06:50:45;;;;;;;5.82;3.40;;;;;;;16.21;62.71;101241.00;4980399;28;114783;-68
2022/10/26 06:53:41;;;;;;;7.85;3.95;;;;;;;16.22;62.71;101241.84;4969852;28;114010;-69
2022/10/26 06:56:10;;;;;;;8.90;3.50;;;;;;;16.24;62.74;101245.31;4977757;28;124042;-69
2022/10/26 06:58:39;;;;;;;8.07;3.72;;;;;;;16.25;62.67;101239.00;4990109;28;124244;-69
2022/10/26 07:01:10;;;;;;;6.40;3.70;;;;;;;16.26;62.70;101243.41;4991774;28;114057;-68
2022/10/26 07:03:37;;;;;;;8.73;4.10;;;;;;;16.28;62.69;101246.81;4972727;28;112821;-68
2022/10/26 07:06:05;;;;;;;7.60;3.88;;;;;;;16.29;62.53;101237.84;4986156;28;124184;-70
2022/10/26 07:08:32;;;;;;;6.32;3.55;;;;;;;16.30;62.41;101234.22;4975323;28;124812;-69
2022/10/26 07:10:59;;;;;;;6.95;3.72;;;;;;;16.30;62.39;101234.22;4977023;28;114074;-69
2022/10/26 07:13:26;;;;;;;6.70;3.55;;;;;;;16.28;62.29;101231.63;4971528;28;114052;-68
2022/10/26 07:15:53;;;;;;;7.63;4.10;;;;;;;16.28;62.21;101225.44;4979047;28;123734;-68
2022/10/26 07:18:20;;;;;;;6.65;3.95;;;;;;;16.27;62.22;101223.72;4992235;28;123630;-69
2022/10/26 07:20:47;;;;;;;6.38;3.65;;;;;;;16.26;62.26;101224.69;4973730;28;113331;-69
2022/10/26 07:23:14;;;;;;;7.32;3.78;;;;;;;16.26;62.42;101216.66;4962761;28;114106;-69
2022/10/26 07:25:41;;;;;;;7.50;3.90;;;;;;;16.26;62.49;101222.00;4970379;28;123156;-68
2022/10/26 07:28:10;;;;;;;6.00;4.03;;;;;;;16.26;62.63;101219.34;4975291;28;123769;-68
2022/10/26 07:30:38;;;;;;;9.57;4.22;;;;;;;16.26;62.62;101228.22;4984555;28;114633;-69
2022/10/26 07:33:08;;;;;;;6.20;3.90;;;;;;;16.28;62.59;101230.78;4990579;28;113779;-68
2022/10/26 07:35:36;;;;;;;9.98;4.15;;;;;;;16.31;62.60;101235.91;4976021;28;124530;-68
2022/10/26 07:38:03;;;;;;;7.55;4.10;;;;;;;16.34;62.49;101235.75;4979438;28;123848;-69
2022/10/26 07:40:31;;;;;;;8.18;4.32;;;;;;;16.36;62.56;101241.84;4981814;28;114780;-68
2022/10/26 07:42:59;;;;;;;10.10;4.30;;;;;;;16.39;62.48;101244.34;4991722;28;114561;-69
2022/10/26 07:45:28;;;;;;;9.23;4.40;;;;;;;16.43;62.50;101251.19;4953109;28;123715;-69
2022/10/26 07:47:55;;;;;;;6.93;4.60;;;;;;;16.47;62.54;101262.56;4983554;28;123944;-69
2022/10/26 07:50:23;;;;;;;6.93;5.07;;;;;;;16.51;62.56;101259.59;4987574;28;114188;-69
2022/10/26 07:52:50;;;;;;;10.10;5.53;;;;;;;16.54;62.51;101270.09;4981612;28;113941;-69
2022/10/26 07:55:18;;;;;;;8.98;4.88;;;;;;;16.58;62.52;101275.25;4980144;28;124067;-70
2022/10/26 07:57:45;;;;;;;8.48;4.50;;;;;;;16.61;62.44;101275.03;4993698;28;123882;-69
2022/10/26 08:00:19;;;;;;;9.93;4.35;;;;;;;16.65;62.66;101276.56;4991645;28;114272;-69
2022/10/26 08:02:46;;;;;;;8.15;3.75;;;;;;;16.70;62.43;101279.81;4979308;28;113089;-69
2022/10/26 08:05:13;;;;;;;7.18;4.22;;;;;;;16.75;62.60;101277.72;4991249;28;124150;-68
2022/10/26 08:07:42;;;;;;;7.93;4.32;;;;;;;16.79;62.61;101268.53;4984378;28;123334;-69
2022/10/26 08:10:11;;;;;;;6.68;4.32;;;;;;;16.84;62.53;101282.50;4985305;28;114112;-69
2022/10/26 08:12:38;;;;;;;6.25;3.88;;;;;;;16.90;62.47;101276.75;4972511;28;113088;-71
2022/10/26 08:15:07;;;;;;;11.93;4.70;;;;;;;16.97;62.47;101281.69;4972670;28;123982;-70
2022/10/26 08:17:34;;;;;;;11.40;4.85;;;;;;;17.03;62.54;101292.03;4990734;28;124408;-70
2022/10/26 08:20:01;;;;;;;10.20;4.45;;;;;;;17.08;62.47;101292.56;4981351;28;114010;-70
2022/10/26 08:22:29;;;;;;;7.28;4.38;;;;;;;17.15;62.57;101296.56;4953585;28;112758;-68
2022/10/26 08:24:56;;;;;;;10.45;4.40;;;;;;;17.25;62.37;101296.81;4979056;28;124536;-68
2022/10/26 08:27:24;;;;;;;8.70;4.50;;;;;;;17.31;62.51;101289.25;4976196;28;124532;-69
2022/10/26 08:29:51;;;;;;;5.43;4.20;;;;;;;17.40;62.41;101300.28;4990480;28;115096;-69
2022/10/26 08:32:18;;;;;;;6.32;4.10;;;;;;;17.48;62.33;101297.97;4960048;28;114703;-69
2022/10/26 08:34:45;;;;;;;7.05;3.78;;;;;;;17.57;62.45;101302.69;4990373;28;124631;-69
2022/10/26 08:37:12;;;;;;;7.85;4.18;;;;;;;17.65;62.36;101305.72;4979217;28;124643;-69
2022/10/26 08:39:39;;;;;;;5.57;4.10;;;;;;;17.74;62.18;101303.38;4989940;28;114952;-69
2022/10/26 08:42:14;;;;;;;5.57;3.40;;;;;;;17.84;62.09;101315.22;5004695;28;113980;-70
2022/10/26 08:44:46;;;;;;;6.43;3.35;;;;;;;17.93;61.90;101309.22;5010295;28;123670;-68
2022/10/26 08:47:22;;;;;;;7.93;3.53;;;;;;;18.03;61.75;101302.28;5008929;28;124464;-70
2022/10/26 08:50:28;;;;;;;7.68;3.50;;;;;;;18.16;61.97;101304.09;5012267;28;113660;-69
2022/10/26 08:53:34;;;;;;;5.72;3.08;;;;;;;18.29;61.74;101313.88;4995627;28;117424;-69
2022/10/26 08:56:24;;;;;;;7.60;3.30;;;;;;;18.43;61.86;101312.88;4994439;28;123969;-68
2022/10/26 08:59:00;;;;;;;8.18;3.17;;;;;;;18.56;61.44;101312.03;4960698;28;122046;-70
2022/10/26 09:01:30;;;;;;;5.97;3.17;;;;;;;18.68;61.26;101316.50;4974025;28;114181;-70
2022/10/26 09:04:00;;;;;;;9.75;3.05;;;;;;;18.77;61.15;101315.84;4977089;28;113363;-70
2022/10/26 09:06:47;;;;;;;8.35;3.30;;;;;;;18.89;61.18;101305.22;4989705;28;123337;-68
2022/10/26 09:09:35;;;;;;;7.65;3.13;;;;;;;19.00;61.04;101316.03;4985185;28;123592;-69
2022/10/26 09:12:33;;;;;;;5.32;2.75;;;;;;;19.12;60.67;101317.84;4989948;28;113973;-69
2022/10/26 09:15:15;;;;;;;8.65;3.50;;;;;;;19.21;60.59;101319.84;4984665;28;114213;-68
2022/10/26 09:18:32;;;;;;;7.68;3.03;;;;;;;19.32;60.43;101320.88;4984955;28;123940;-69
2022/10/26 09:21:29;;;;;;;6.93;3.03;;;;;;;19.43;60.34;101312.84;4983662;28;122930;-69
2022/10/26 09:24:14;;;;;;;5.97;3.15;;;;;;;19.53;60.30;101321.94;4987941;28;115994;-69
2022/10/26 09:26:53;;;;;;;8.23;3.17;;;;;;;19.64;60.41;101316.59;4971762;28;114585;-69
2022/10/26 09:29:27;;;;;;;7.10;3.30;;;;;;;19.75;60.21;101310.44;4981467;28;125015;-69
2022/10/26 09:31:57;;;;;;;7.10;2.95;;;;;;;19.87;59.82;101311.34;4984453;28;123965;-69
2022/10/26 09:34:44;;;;;;;5.47;3.08;;;;;;;19.96;59.55;101299.03;4985034;28;114330;-69
2022/10/26 09:37:17;;;;;;;6.10;3.20;;;;;;;20.03;59.47;101311.03;4986718;28;113067;-69
2022/10/26 09:39:55;;;;;;;8.10;2.70;;;;;;;20.11;59.12;101313.09;4996103;28;124229;-69
2022/10/26 09:42:53;;;;;;;5.13;3.03;;;;;;;20.19;59.08;101326.81;5000568;28;123961;-69
2022/10/26 09:45:37;;;;;;;7.50;2.95;;;;;;;20.30;59.24;101329.50;4979608;28;113567;-69
2022/10/26 09:48:14;;;;;;;8.00;2.85;;;;;;;20.40;59.08;101340.44;4989050;28;114062;-69
2022/10/26 09:50:47;;;;;;;6.35;2.67;;;;;;;20.52;58.78;101338.59;4952569;28;123656;-69
2022/10/26 09:53:15;;;;;;;6.07;2.75;;;;;;;20.61;58.40;101354.06;4970837;28;124110;-69
2022/10/26 09:55:45;;;;;;;4.50;2.35;;;;;;;20.66;58.12;101351.81;4991072;28;113947;-70
2022/10/26 09:58:16;;;;;;;6.85;2.78;;;;;;;20.75;58.31;101356.47;4991289;28;113896;-70
2022/10/26 10:00:44;;;;;;;6.38;2.53;;;;;;;20.84;57.98;101362.13;4989034;28;124127;-70
2022/10/26 10:03:19;;;;;;;10.02;2.72;;;;;;;20.93;57.95;101370.31;4989248;28;123775;-70
2022/10/26 10:05:46;;;;;;;;;;;;;;;20.99;58.58;101374.34;4989671;28;114080;-70
2022/10/26 10:08:23;;;;;;;4.38;2.38;;;;;;;21.11;58.21;101377.88;4987283;28;113970;-70
2022/10/26 10:10:57;;;;;;;7.20;2.60;;;;;;;21.20;57.73;101387.91;4988142;28;125004;-70
2022/10/26 10:13:36;;;;;;;6.65;2.40;;;;;;;21.29;57.83;101391.69;4968488;28;123841;-70
2022/10/26 10:16:19;;;;;;;3.92;2.17;;;;;;;21.39;57.84;101403.41;4970239;28;114962;-70
2022/10/26 10:18:54;;;;;;;4.97;2.38;;;;;;;21.47;57.50;101400.13;4971340;28;113843;-70
2022/10/26 10:21:43;;;;;;;7.35;2.80;;;;;;;21.53;57.29;101395.09;4975713;28;124309;-70
2022/10/26 10:24:31;;;;;;;4.85;2.20;;;;;;;21.63;57.20;101405.13;4986252;28;123954;-70
2022/10/26 10:27:13;;;;;;;5.53;2.30;;;;;;;21.69;56.84;101401.91;4971033;28;113680;-70
2022/10/26 10:29:43;;;;;;;5.65;2.20;;;;;;;21.74;56.57;101407.78;4971126;28;114587;-70
2022/10/26 10:32:19;;;;;;;6.78;2.28;;;;;;;21.76;56.29;101419.28;4984060;28;125889;-70
2022/10/26 10:34:48;;;;;;;8.25;2.40;;;;;;;21.82;56.30;101424.16;4987362;28;123936;-69
2022/10/26 10:37:33;;;;;;;6.60;2.63;;;;;;;21.87;56.07;101427.34;4969695;28;113835;-69
2022/10/26 10:40:02;;;;;;;;;;;;;;;21.90;56.70;101426.22;4988085;28;114421;-69
2022/10/26 10:42:32;;;;;;;7.00;2.22;;;;;;;21.99;56.32;101427.28;4999513;28;124347;-70
2022/10/26 10:45:01;;;;;;;6.20;2.20;;;;;;;22.06;56.22;101433.91;4990124;28;123907;-70
2022/10/26 10:47:31;;;;;;;4.68;2.50;;;;;;;22.11;55.73;101437.03;4982110;28;114075;-70
2022/10/26 10:50:05;;;;;;;6.30;2.35;;;;;;;22.13;55.47;101441.34;4956026;28;114220;-70
2022/10/26 10:52:34;;;;;;;5.38;2.40;;;;;;;22.17;55.43;101439.25;4973097;28;124648;-70
2022/10/26 10:55:16;;;;;;;6.40;2.47;;;;;;;22.20;55.42;101447.06;4972132;28;124414;-71
2022/10/26 10:58:14;;;;;;;4.97;2.10;;;;;;;22.24;55.48;101445.81;4990955;28;114107;-72
2022/10/26 11:00:44;;;;;;;5.35;2.25;;;;;;;22.28;55.23;101455.41;4993756;28;115154;-70
2022/10/26 11:03:59;;;;;;;7.13;2.70;;;;;;;22.31;55.27;101452.44;4974789;28;124281;-70
2022/10/26 11:06:28;;;;;;;5.13;2.53;;;;;;;22.38;55.38;101450.06;4908925;28;123838;-70
2022/10/26 11:09:01;;;;;;;7.97;2.75;;;;;;;22.44;54.94;101451.38;4963300;28;115824;-70
2022/10/26 11:11:37;;;;;;;6.28;2.47;;;;;;;22.48;54.96;101450.13;4979846;28;114016;-70
2022/10/26 11:14:30;;;;;;;5.38;2.45;;;;;;;22.53;54.92;101461.41;4976934;28;124495;-70
2022/10/26 11:17:01;;;;;;;4.40;2.30;;;;;;;22.58;54.83;101472.63;4992403;28;123897;-70
2022/10/26 11:19:58;;;;;;;7.28;2.40;;;;;;;22.62;55.00;101474.13;4971619;28;114321;-70
2022/10/26 11:22:32;;;;;;;5.43;2.22;;;;;;;22.69;54.71;101469.03;4975700;28;112643;-70
2022/10/26 11:25:28;;;;;;;5.55;2.30;;;;;;;22.74;54.96;101461.38;4972348;28;124691;-70
2022/10/26 11:27:58;;;;;;;;;;;;;;;22.80;55.51;101465.41;4943892;28;123436;-70
2022/10/26 11:30:25;;;;;;;5.70;2.30;;;;;;;22.88;55.04;101468.28;4976749;28;114331;-70
2022/10/26 11:32:58;;;;;;;6.10;2.03;;;;;;;22.96;54.79;101471.16;4967992;28;113386;-70
2022/10/26 11:35:39;;;;;;;4.05;2.05;;;;;;;23.04;54.49;101481.34;4979181;28;124065;-70
2022/10/26 11:38:28;;;;;;;5.65;2.13;;;;;;;23.07;54.40;101479.19;4981558;28;123905;-70
2022/10/26 11:41:39;;;;;;;5.35;2.25;;;;;;;23.11;54.50;101480.66;4980891;28;113890;-70
2022/10/26 11:44:15;;;;;;;5.53;2.28;;;;;;;23.16;54.32;101482.09;4959355;28;115300;-70